createdAt,value
2023-05-10T00:00:01.618Z,51.88
2023-05-10T00:01:01.756Z,51.17
2023-05-10T00:02:01.970Z,51.17
2023-05-10T00:03:02.157Z,51.98
2023-05-10T00:04:02.298Z,51.98
2023-05-10T00:05:02.477Z,51.37
2023-05-10T00:06:02.671Z,51.88
2023-05-10T00:07:02.819Z,52.18
2023-05-10T00:08:02.973Z,52.08
2023-05-10T00:09:03.136Z,52.08
2023-05-10T00:10:03.318Z,51.88
2023-05-10T00:11:03.486Z,52.28
2023-05-10T00:12:03.678Z,51.37
2023-05-10T00:13:03.898Z,51.47
2023-05-10T00:14:04.008Z,52.00
2023-05-10T00:15:04.200Z,52.18
2023-05-10T00:16:04.418Z,52.18
2023-05-10T00:17:04.556Z,52.20
2023-05-10T00:18:04.790Z,51.60
2023-05-10T00:19:04.944Z,52.20
2023-05-10T00:20:05.114Z,51.90
2023-05-10T00:21:05.328Z,51.60
2023-05-10T00:22:05.437Z,51.29
2023-05-10T00:23:05.695Z,51.60
2023-05-10T00:24:05.797Z,52.41
2023-05-10T00:25:05.976Z,51.80
2023-05-10T00:26:06.147Z,51.80
2023-05-10T00:27:06.314Z,52.00
2023-05-10T00:28:06.539Z,52.61
2023-05-10T00:29:06.667Z,52.20
2023-05-10T00:30:06.846Z,51.70
2023-05-10T00:31:07.023Z,52.11
2023-05-10T00:32:07.281Z,52.51
2023-05-10T00:33:07.411Z,51.60
2023-05-10T00:34:07.584Z,51.70
2023-05-10T00:35:07.741Z,52.11
2023-05-10T00:36:07.915Z,52.20
2023-05-10T00:37:08.108Z,52.51
2023-05-10T00:38:08.276Z,52.71
2023-05-10T00:39:08.458Z,52.31
2023-05-10T00:40:08.641Z,52.51
2023-05-10T00:41:08.804Z,52.73
2023-05-10T00:42:08.979Z,52.33
2023-05-10T00:43:09.158Z,52.53
2023-05-10T00:44:09.339Z,52.84
2023-05-10T00:45:09.536Z,53.04
2023-05-10T00:46:09.730Z,52.84
2023-05-10T00:47:09.872Z,52.53
2023-05-10T00:48:10.060Z,52.23
2023-05-10T00:49:10.227Z,53.34
2023-05-10T00:50:10.446Z,53.04
2023-05-10T00:51:10.586Z,52.73
2023-05-10T00:52:10.774Z,53.34
2023-05-10T00:53:10.959Z,52.94
2023-05-10T00:54:11.120Z,52.73
2023-05-10T00:55:11.288Z,53.17
2023-05-10T00:56:11.474Z,53.25
2023-05-10T00:57:11.649Z,53.55
2023-05-10T00:58:11.832Z,53.75
2023-05-10T00:59:11.974Z,53.25
2023-05-10T01:00:12.151Z,53.47
2023-05-10T01:01:12.352Z,53.88
2023-05-10T01:02:12.539Z,53.58
2023-05-10T01:03:12.817Z,53.37
2023-05-10T01:04:12.861Z,54.08
2023-05-10T01:05:13.106Z,53.98
2023-05-10T01:06:13.237Z,53.67
2023-05-10T01:07:13.434Z,53.67
2023-05-10T01:08:13.598Z,54.08
2023-05-10T01:09:13.768Z,53.67
2023-05-10T01:10:14.165Z,53.98
2023-05-10T01:11:14.137Z,53.58
2023-05-10T01:12:14.352Z,53.47
2023-05-10T01:13:14.532Z,53.67
2023-05-10T01:14:14.653Z,53.58
2023-05-10T01:15:14.801Z,53.47
2023-05-10T01:16:15.049Z,53.67
2023-05-10T01:17:15.163Z,53.17
2023-05-10T01:18:15.338Z,53.47
2023-05-10T01:19:15.529Z,53.58
2023-05-10T01:20:15.970Z,53.39
2023-05-10T01:21:15.989Z,54.21
2023-05-10T01:22:16.067Z,53.91
2023-05-10T01:23:16.249Z,54.11
2023-05-10T01:24:16.431Z,53.50
2023-05-10T01:25:16.610Z,53.50
2023-05-10T01:26:16.783Z,53.50
2023-05-10T01:27:16.960Z,53.60
2023-05-10T01:28:17.132Z,53.60
2023-05-10T01:29:17.327Z,53.80
2023-05-10T01:30:17.489Z,54.00
2023-05-10T01:31:17.721Z,54.31
2023-05-10T01:32:17.853Z,54.31
2023-05-10T01:33:18.048Z,54.00
2023-05-10T01:34:18.223Z,54.11
2023-05-10T01:35:18.402Z,54.21
2023-05-10T01:36:18.577Z,54.21
2023-05-10T01:37:18.746Z,54.41
2023-05-10T01:38:18.930Z,54.24
2023-05-10T01:39:19.107Z,54.84
2023-05-10T01:40:19.256Z,54.84
2023-05-10T01:41:19.442Z,54.64
2023-05-10T01:42:19.630Z,54.74
2023-05-10T01:43:19.780Z,55.05
2023-05-10T01:44:19.956Z,55.45
2023-05-10T01:45:20.138Z,54.94
2023-05-10T01:46:20.352Z,55.25
2023-05-10T01:47:20.480Z,54.74
2023-05-10T01:48:20.658Z,54.74
2023-05-10T01:49:20.845Z,54.84
2023-05-10T01:50:21.009Z,54.94
2023-05-10T01:51:21.181Z,54.94
2023-05-10T01:52:21.356Z,54.64
2023-05-10T01:53:21.546Z,54.94
2023-05-10T01:54:21.708Z,54.87
2023-05-10T01:55:21.896Z,54.97
2023-05-10T01:56:22.094Z,55.18
2023-05-10T01:57:22.266Z,55.27
2023-05-10T01:58:22.424Z,55.07
2023-05-10T01:59:22.600Z,55.27
2023-05-10T02:00:22.767Z,55.18
2023-05-10T02:01:23.031Z,55.48
2023-05-10T02:02:23.160Z,55.48
2023-05-10T02:03:23.440Z,55.48
2023-05-10T02:04:23.448Z,55.78
2023-05-10T02:05:23.628Z,55.58
2023-05-10T02:06:23.812Z,55.48
2023-05-10T02:07:23.983Z,55.58
2023-05-10T02:08:24.123Z,55.27
2023-05-10T02:09:24.288Z,55.78
2023-05-10T02:10:24.463Z,55.68
2023-05-10T02:11:24.653Z,55.51
2023-05-10T02:12:24.810Z,55.30
2023-05-10T02:13:25.035Z,56.01
2023-05-10T02:14:25.139Z,56.01
2023-05-10T02:15:25.318Z,56.21
2023-05-10T02:16:25.533Z,56.12
2023-05-10T02:17:25.751Z,56.52
2023-05-10T02:18:25.855Z,56.62
2023-05-10T02:19:26.037Z,56.52
2023-05-10T02:20:26.220Z,56.21
2023-05-10T02:21:26.416Z,56.12
2023-05-10T02:22:26.580Z,56.21
2023-05-10T02:23:26.752Z,56.73
2023-05-10T02:24:26.925Z,56.32
2023-05-10T02:25:27.132Z,56.42
2023-05-10T02:26:27.307Z,56.62
2023-05-10T02:27:27.473Z,56.82
2023-05-10T02:28:27.657Z,56.42
2023-05-10T02:29:27.843Z,56.32
2023-05-10T02:30:28.035Z,55.91
2023-05-10T02:31:28.258Z,56.21
2023-05-10T02:32:28.457Z,56.82
2023-05-10T02:33:28.563Z,56.75
2023-05-10T02:34:28.730Z,56.82
2023-05-10T02:35:28.910Z,56.75
2023-05-10T02:36:29.072Z,56.55
2023-05-10T02:37:29.236Z,56.85
2023-05-10T02:38:29.397Z,57.16
2023-05-10T02:39:29.634Z,56.75
2023-05-10T02:40:29.757Z,56.85
2023-05-10T02:41:29.943Z,56.75
2023-05-10T02:42:30.114Z,57.06
2023-05-10T02:43:30.288Z,57.26
2023-05-10T02:44:30.479Z,57.16
2023-05-10T02:45:30.640Z,57.46
2023-05-10T02:46:30.871Z,57.26
2023-05-10T02:47:31.003Z,57.36
2023-05-10T02:48:31.163Z,57.67
2023-05-10T02:49:31.354Z,57.69
2023-05-10T02:50:31.523Z,58.00
2023-05-10T02:51:31.689Z,58.20
2023-05-10T02:52:31.849Z,58.00
2023-05-10T02:53:32.047Z,57.59
2023-05-10T02:54:32.169Z,58.00
2023-05-10T02:55:32.363Z,58.00
2023-05-10T02:56:32.512Z,56.98
2023-05-10T02:57:32.712Z,57.90
2023-05-10T02:58:32.886Z,57.69
2023-05-10T02:59:33.024Z,57.90
2023-05-10T03:00:33.252Z,57.59
2023-05-10T03:01:33.396Z,57.59
2023-05-10T03:02:33.617Z,57.69
2023-05-10T03:03:33.761Z,57.59
2023-05-10T03:04:33.942Z,57.90
2023-05-10T03:05:34.090Z,58.10
2023-05-10T03:06:34.251Z,58.10
2023-05-10T03:07:34.436Z,58.00
2023-05-10T03:08:34.553Z,57.79
2023-05-10T03:09:34.752Z,58.20
2023-05-10T03:10:34.908Z,58.30
2023-05-10T03:11:35.086Z,58.40
2023-05-10T03:12:35.247Z,58.40
2023-05-10T03:13:35.436Z,58.33
2023-05-10T03:14:35.591Z,58.03
2023-05-10T03:15:35.783Z,57.92
2023-05-10T03:16:36.050Z,58.33
2023-05-10T03:17:36.212Z,58.53
2023-05-10T03:18:36.317Z,57.92
2023-05-10T03:19:36.531Z,57.92
2023-05-10T03:20:36.662Z,57.69
2023-05-10T03:21:36.878Z,58.33
2023-05-10T03:22:37.058Z,58.13
2023-05-10T03:23:37.207Z,58.23
2023-05-10T03:24:37.351Z,58.13
2023-05-10T03:25:37.518Z,57.82
2023-05-10T03:26:37.708Z,57.82
2023-05-10T03:27:37.880Z,58.23
2023-05-10T03:28:38.068Z,58.44
2023-05-10T03:29:38.255Z,57.92
2023-05-10T03:30:38.439Z,58.44
2023-05-10T03:31:38.653Z,58.53
2023-05-10T03:32:38.793Z,58.13
2023-05-10T03:33:38.920Z,58.23
2023-05-10T03:34:39.113Z,58.13
2023-05-10T03:35:39.287Z,58.74
2023-05-10T03:36:39.462Z,58.53
2023-05-10T03:37:39.620Z,58.20
2023-05-10T03:38:39.762Z,58.51
2023-05-10T03:39:39.946Z,58.51
2023-05-10T03:40:40.100Z,57.79
2023-05-10T03:41:40.259Z,57.59
2023-05-10T03:42:40.436Z,57.90
2023-05-10T03:43:40.634Z,58.40
2023-05-10T03:44:40.813Z,58.20
2023-05-10T03:45:41.023Z,57.87
2023-05-10T03:46:41.182Z,58.28
2023-05-10T03:47:41.384Z,57.06
2023-05-10T03:48:41.499Z,57.26
2023-05-10T03:49:41.711Z,57.34
2023-05-10T03:50:41.862Z,57.03
2023-05-10T03:51:42.052Z,56.01
2023-05-10T03:52:42.225Z,56.49
2023-05-10T03:53:42.426Z,56.29
2023-05-10T03:54:42.591Z,56.19
2023-05-10T03:55:42.763Z,56.19
2023-05-10T03:56:42.938Z,56.09
2023-05-10T03:57:43.121Z,56.26
2023-05-10T03:58:43.325Z,56.16
2023-05-10T03:59:43.490Z,55.05
2023-05-10T04:00:43.657Z,55.55
2023-05-10T04:01:43.871Z,55.35
2023-05-10T04:02:45.895Z,55.35
2023-05-10T04:03:44.243Z,55.66
2023-05-10T04:04:44.362Z,55.45
2023-05-10T04:05:44.515Z,54.94
2023-05-10T04:06:44.680Z,55.02
2023-05-10T04:07:44.828Z,55.86
2023-05-10T04:08:45.021Z,55.66
2023-05-10T04:09:45.203Z,56.44
2023-05-10T04:10:45.373Z,55.63
2023-05-10T04:11:45.559Z,55.93
2023-05-10T04:12:45.814Z,55.73
2023-05-10T04:13:45.939Z,55.43
2023-05-10T04:14:46.088Z,55.63
2023-05-10T04:15:46.251Z,55.22
2023-05-10T04:16:46.514Z,54.59
2023-05-10T04:17:46.673Z,54.08
2023-05-10T04:18:46.789Z,54.79
2023-05-10T04:19:46.983Z,54.18
2023-05-10T04:20:47.160Z,54.69
2023-05-10T04:21:47.306Z,54.49
2023-05-10T04:22:47.509Z,53.98
2023-05-10T04:23:47.663Z,54.28
2023-05-10T04:24:47.877Z,53.96
2023-05-10T04:25:47.999Z,54.49
2023-05-10T04:26:48.204Z,54.69
2023-05-10T04:27:48.397Z,53.75
2023-05-10T04:28:48.538Z,53.96
2023-05-10T04:29:48.719Z,54.16
2023-05-10T04:30:48.937Z,53.85
2023-05-10T04:31:49.071Z,53.85
2023-05-10T04:32:49.283Z,53.85
2023-05-10T04:33:49.441Z,54.05
2023-05-10T04:34:49.591Z,54.46
2023-05-10T04:35:49.780Z,53.65
2023-05-10T04:36:49.991Z,53.85
2023-05-10T04:37:50.148Z,53.55
2023-05-10T04:38:50.289Z,52.73
2023-05-10T04:39:50.480Z,53.85
2023-05-10T04:40:50.663Z,53.22
2023-05-10T04:41:50.840Z,53.34
2023-05-10T04:42:50.999Z,53.93
2023-05-10T04:43:51.189Z,53.02
2023-05-10T04:44:51.321Z,52.61
2023-05-10T04:45:51.510Z,54.13
2023-05-10T04:46:51.645Z,52.71
2023-05-10T04:47:51.819Z,53.63
2023-05-10T04:48:51.951Z,53.12
2023-05-10T04:49:52.129Z,53.40
2023-05-10T04:50:52.342Z,53.50
2023-05-10T04:51:52.501Z,52.59
2023-05-10T04:52:53.357Z,52.18
2023-05-10T04:54:05.391Z,52.66
2023-05-10T04:54:54.032Z,52.06
2023-05-10T04:55:53.220Z,51.86
2023-05-10T04:56:53.412Z,51.83
2023-05-10T04:57:53.563Z,52.44
2023-05-10T04:58:53.734Z,51.53
2023-05-10T04:59:53.920Z,52.23
2023-05-10T05:00:54.117Z,52.33
2023-05-10T05:01:54.282Z,51.93
2023-05-10T05:02:54.514Z,52.23
2023-05-10T05:03:54.702Z,51.22
2023-05-10T05:04:54.786Z,52.13
2023-05-10T05:05:54.988Z,51.53
2023-05-10T05:06:55.166Z,51.20
2023-05-10T05:07:55.349Z,52.01
2023-05-10T05:08:55.533Z,51.09
2023-05-10T05:09:55.734Z,50.79
2023-05-10T05:10:55.899Z,50.87
2023-05-10T05:11:56.076Z,50.37
2023-05-10T05:12:56.309Z,49.84
2023-05-10T05:13:56.416Z,50.44
2023-05-10T05:14:56.631Z,49.81
2023-05-10T05:15:56.792Z,49.51
2023-05-10T05:16:56.943Z,49.08
2023-05-10T05:17:57.158Z,48.65
2023-05-10T05:18:57.282Z,48.05
2023-05-10T05:19:57.427Z,47.72
2023-05-10T05:20:57.624Z,46.49
2023-05-10T05:21:57.801Z,45.97
2023-05-10T05:22:57.959Z,45.24
2023-05-10T05:23:58.151Z,44.71
2023-05-10T05:24:58.312Z,44.57
2023-05-10T05:25:58.469Z,43.52
2023-05-10T05:26:58.654Z,43.38
2023-05-10T05:27:58.828Z,40.95
2023-05-10T05:28:59.009Z,41.03
2023-05-10T05:29:59.147Z,40.41
2023-05-10T05:30:59.338Z,39.81
2023-05-10T05:31:59.496Z,39.39
2023-05-10T05:32:59.712Z,39.95
2023-05-10T05:33:59.849Z,38.63
2023-05-10T05:35:00.042Z,39.11
2023-05-10T05:36:00.217Z,38.40
2023-05-10T05:37:00.408Z,38.76
2023-05-10T05:38:00.571Z,36.94
2023-05-10T05:39:00.734Z,36.15
2023-05-10T05:40:00.883Z,36.52
2023-05-10T05:41:01.068Z,36.71
2023-05-10T05:42:01.231Z,35.79
2023-05-10T05:43:01.458Z,36.07
2023-05-10T05:44:01.578Z,35.86
2023-05-10T05:45:01.759Z,34.18
2023-05-10T05:46:01.966Z,34.98
2023-05-10T05:47:02.106Z,34.66
2023-05-10T05:48:02.334Z,34.55
2023-05-10T05:49:02.447Z,34.83
2023-05-10T05:50:02.621Z,33.72
2023-05-10T05:51:02.980Z,33.40
2023-05-10T05:52:02.979Z,33.69
2023-05-10T05:53:03.153Z,33.57
2023-05-10T05:54:03.325Z,32.87
2023-05-10T05:55:03.493Z,32.66
2023-05-10T05:56:03.658Z,33.04
2023-05-10T05:57:03.867Z,31.45
2023-05-10T05:58:04.038Z,31.26
2023-05-10T05:59:04.200Z,31.45
2023-05-10T06:00:04.374Z,31.15
2023-05-10T06:01:04.519Z,32.45
2023-05-10T06:02:04.726Z,30.97
2023-05-10T06:03:04.948Z,31.96
2023-05-10T06:04:05.140Z,32.05
2023-05-10T06:05:05.190Z,31.55
2023-05-10T06:06:05.372Z,31.63
2023-05-10T06:07:05.550Z,31.63
2023-05-10T06:08:05.688Z,30.83
2023-05-10T06:09:05.851Z,30.53
2023-05-10T06:10:06.002Z,30.13
2023-05-10T06:11:06.206Z,30.73
2023-05-10T06:12:06.364Z,30.52
2023-05-10T06:13:06.637Z,30.80
2023-05-10T06:14:06.726Z,30.10
2023-05-10T06:15:06.921Z,30.02
2023-05-10T06:16:07.141Z,30.30
2023-05-10T06:17:07.288Z,30.40
2023-05-10T06:18:07.499Z,30.39
2023-05-10T06:19:07.644Z,30.18
2023-05-10T06:20:07.785Z,29.28
2023-05-10T06:21:08.061Z,29.96
2023-05-10T06:22:08.148Z,31.23
2023-05-10T06:23:08.351Z,30.63
2023-05-10T06:24:08.505Z,29.71
2023-05-10T06:25:08.717Z,29.79
2023-05-10T06:26:08.884Z,28.10
2023-05-10T06:27:09.041Z,26.82
2023-05-10T06:28:09.207Z,27.11
2023-05-10T06:29:09.400Z,27.14
2023-05-10T06:30:12.923Z,27.14
2023-05-10T06:31:09.799Z,27.45
2023-05-10T06:32:09.914Z,27.76
2023-05-10T06:33:10.184Z,28.08
2023-05-10T06:34:10.285Z,28.48
2023-05-10T06:35:10.484Z,28.86
2023-05-10T06:36:10.642Z,28.35
2023-05-10T06:37:10.822Z,27.96
2023-05-10T06:38:11.014Z,29.24
2023-05-10T06:39:11.185Z,30.21
2023-05-10T06:40:11.376Z,29.60
2023-05-10T06:41:11.527Z,28.59
2023-05-10T06:42:11.682Z,28.28
2023-05-10T06:43:11.874Z,27.99
2023-05-10T06:44:12.062Z,28.17
2023-05-10T06:45:12.270Z,28.45
2023-05-10T06:46:12.518Z,26.58
2023-05-10T06:47:12.607Z,27.96
2023-05-10T06:48:12.876Z,26.58
2023-05-10T06:49:13.005Z,26.87
2023-05-10T06:50:13.216Z,25.79
2023-05-10T06:51:13.356Z,26.30
2023-05-10T06:52:13.518Z,26.21
2023-05-10T06:53:13.726Z,27.41
2023-05-10T06:54:13.875Z,28.20
2023-05-10T06:55:14.074Z,28.37
2023-05-10T06:56:14.216Z,27.17
2023-05-10T06:57:27.724Z,25.99
2023-05-10T06:58:15.612Z,27.37
2023-05-10T06:59:14.814Z,26.58
2023-05-10T07:00:15.100Z,26.19
2023-05-10T07:01:15.293Z,27.75
2023-05-10T07:02:15.369Z,27.54
2023-05-10T07:03:15.546Z,26.84
2023-05-10T07:04:15.716Z,25.85
2023-05-10T07:05:16.041Z,25.46
2023-05-10T07:06:29.305Z,25.56
2023-05-10T07:07:17.205Z,26.56
2023-05-10T07:08:16.368Z,25.57
2023-05-10T07:09:16.560Z,25.77
2023-05-10T07:10:16.725Z,25.87
2023-05-10T07:11:16.904Z,26.84
2023-05-10T07:12:17.118Z,25.37
2023-05-10T07:13:17.315Z,25.66
2023-05-10T07:14:17.416Z,25.29
2023-05-10T07:15:17.967Z,25.70
2023-05-10T07:16:17.773Z,26.59
2023-05-10T07:17:18.028Z,27.47
2023-05-10T07:18:18.115Z,26.48
2023-05-10T07:19:18.273Z,26.18
2023-05-10T07:20:18.449Z,26.09
2023-05-10T07:21:18.696Z,26.77
2023-05-10T07:22:18.831Z,27.15
2023-05-10T07:23:19.010Z,25.67
2023-05-10T07:24:19.158Z,26.36
2023-05-10T07:25:19.328Z,27.14
2023-05-10T07:26:19.499Z,26.53
2023-05-10T07:27:19.654Z,25.93
2023-05-10T07:28:19.830Z,25.72
2023-05-10T07:29:20.002Z,25.32
2023-05-10T07:30:20.205Z,25.60
2023-05-10T07:31:20.343Z,25.39
2023-05-10T07:32:20.579Z,24.90
2023-05-10T07:33:20.700Z,24.01
2023-05-10T07:34:20.854Z,24.41
2023-05-10T07:35:21.056Z,25.57
2023-05-10T07:36:21.233Z,25.27
2023-05-10T07:37:21.427Z,24.29
2023-05-10T07:38:21.562Z,24.37
2023-05-10T07:39:27.792Z,23.87
2023-05-10T07:40:22.966Z,23.09
2023-05-10T07:41:22.097Z,24.26
2023-05-10T07:42:22.287Z,24.76
2023-05-10T07:43:22.454Z,24.57
2023-05-10T07:44:22.632Z,23.59
2023-05-10T07:45:22.799Z,24.47
2023-05-10T07:46:23.040Z,24.76
2023-05-10T07:47:23.134Z,24.76
2023-05-10T07:48:23.317Z,24.16
2023-05-10T07:49:23.478Z,24.64
2023-05-10T07:50:23.653Z,25.12
2023-05-10T07:51:23.823Z,24.92
2023-05-10T07:52:23.988Z,23.83
2023-05-10T07:53:24.181Z,23.35
2023-05-10T07:54:24.371Z,24.90
2023-05-10T07:55:24.565Z,23.82
2023-05-10T07:56:24.722Z,24.60
2023-05-10T07:57:24.865Z,23.03
2023-05-10T07:58:25.041Z,23.13
2023-05-10T07:59:25.232Z,24.60
2023-05-10T08:00:25.423Z,23.80
2023-05-10T08:01:25.599Z,23.89
2023-05-10T08:02:25.843Z,21.84
2023-05-10T08:03:26.020Z,21.85
2023-05-10T08:04:26.169Z,24.68
2023-05-10T08:05:26.273Z,24.10
2023-05-10T08:06:26.436Z,24.00
2023-05-10T08:07:26.639Z,23.12
2023-05-10T08:08:26.791Z,22.73
2023-05-10T08:09:26.989Z,22.53
2023-05-10T08:10:27.145Z,23.51
2023-05-10T08:11:27.299Z,22.83
2023-05-10T08:12:27.488Z,22.83
2023-05-10T08:13:27.654Z,23.22
2023-05-10T08:14:27.815Z,23.12
2023-05-10T08:15:28.037Z,22.91
2023-05-10T08:16:28.203Z,23.21
2023-05-10T08:17:28.429Z,23.29
2023-05-10T08:18:28.547Z,24.06
2023-05-10T08:19:28.685Z,23.18
2023-05-10T08:20:28.892Z,22.31
2023-05-10T08:21:29.032Z,23.47
2023-05-10T08:22:29.207Z,21.23
2023-05-10T08:23:29.379Z,21.64
2023-05-10T08:24:29.542Z,21.92
2023-05-10T08:25:29.726Z,21.33
2023-05-10T08:26:29.921Z,21.72
2023-05-10T08:27:30.116Z,21.43
2023-05-10T08:28:30.296Z,21.54
2023-05-10T08:29:32.839Z,23.38
2023-05-10T08:30:31.611Z,21.81
2023-05-10T08:31:30.853Z,23.36
2023-05-10T08:32:31.031Z,23.84
2023-05-10T08:33:31.167Z,21.70
2023-05-10T08:34:31.329Z,21.71
2023-05-10T08:35:31.506Z,22.58
2023-05-10T08:36:31.675Z,21.69
2023-05-10T08:37:31.845Z,23.22
2023-05-10T08:38:32.069Z,22.24
2023-05-10T08:39:32.226Z,20.01
2023-05-10T08:40:32.364Z,20.60
2023-05-10T08:41:32.563Z,21.18
2023-05-10T08:42:32.712Z,21.95
2023-05-10T08:43:32.887Z,21.45
2023-05-10T08:44:33.039Z,21.73
2023-05-10T08:45:33.244Z,22.12
2023-05-10T08:46:33.453Z,20.85
2023-05-10T08:47:33.608Z,20.26
2023-05-10T08:48:33.727Z,20.73
2023-05-10T08:49:33.951Z,19.96
2023-05-10T08:50:34.117Z,19.47
2023-05-10T08:51:34.253Z,19.38
2023-05-10T08:52:34.446Z,20.06
2023-05-10T08:53:34.608Z,19.38
2023-05-10T08:54:34.771Z,19.58
2023-05-10T08:55:34.942Z,19.87
2023-05-10T08:56:35.113Z,20.06
2023-05-10T08:57:35.284Z,19.96
2023-05-10T08:58:35.501Z,20.54
2023-05-10T08:59:35.628Z,19.75
2023-05-10T09:00:35.854Z,19.35
2023-05-10T09:01:35.952Z,19.06
2023-05-10T09:02:36.158Z,19.06
2023-05-10T09:03:36.390Z,18.87
2023-05-10T09:04:36.608Z,19.35
2023-05-10T09:05:36.659Z,20.01
2023-05-10T09:06:36.884Z,19.05
2023-05-10T09:07:37.033Z,19.33
2023-05-10T09:08:37.223Z,18.64
2023-05-10T09:09:37.391Z,19.80
2023-05-10T09:10:37.548Z,20.77
2023-05-10T09:11:37.729Z,18.63
2023-05-10T09:12:37.898Z,18.55
2023-05-10T09:13:38.049Z,18.66
2023-05-10T09:14:38.258Z,18.85
2023-05-10T09:15:38.401Z,18.87
2023-05-10T09:16:38.674Z,19.26
2023-05-10T09:17:38.847Z,19.45
2023-05-10T09:18:39.035Z,20.80
2023-05-10T09:19:39.124Z,20.20
2023-05-10T09:20:39.325Z,18.45
2023-05-10T09:21:39.469Z,18.07
2023-05-10T09:22:39.734Z,19.05
2023-05-10T09:23:39.851Z,19.15
2023-05-10T09:24:40.008Z,19.24
2023-05-10T09:25:40.233Z,19.04
2023-05-10T09:26:40.381Z,19.12
2023-05-10T09:27:40.544Z,18.35
2023-05-10T09:28:40.698Z,18.82
2023-05-10T09:29:40.865Z,19.40
2023-05-10T09:30:41.086Z,19.01
2023-05-10T09:31:41.221Z,18.33
2023-05-10T09:32:41.472Z,17.86
2023-05-10T09:33:41.560Z,18.44
2023-05-10T09:34:41.728Z,19.10
2023-05-10T09:35:41.914Z,19.01
2023-05-10T09:36:42.083Z,19.68
2023-05-10T09:37:42.304Z,18.32
2023-05-10T09:38:42.445Z,18.90
2023-05-10T09:39:42.602Z,18.79
2023-05-10T09:40:42.775Z,18.30
2023-05-10T09:41:42.948Z,17.55
2023-05-10T09:42:43.120Z,17.76
2023-05-10T09:43:43.277Z,18.72
2023-05-10T09:44:43.435Z,18.91
2023-05-10T09:45:43.592Z,18.42
2023-05-10T09:46:43.807Z,18.30
2023-05-10T09:47:44.014Z,18.01
2023-05-10T09:48:44.143Z,18.97
2023-05-10T09:49:44.343Z,18.58
2023-05-10T09:50:44.608Z,18.76
2023-05-10T09:51:44.704Z,19.23
2023-05-10T09:52:44.858Z,17.79
2023-05-10T09:53:45.025Z,17.61
2023-05-10T09:54:45.215Z,17.82
2023-05-10T09:55:45.411Z,17.16
2023-05-10T09:56:45.559Z,18.41
2023-05-10T09:57:45.729Z,18.90
2023-05-10T09:58:45.895Z,18.50
2023-05-10T09:59:46.055Z,17.82
2023-05-10T10:00:46.254Z,17.74
2023-05-10T10:01:46.428Z,17.75
2023-05-10T10:02:46.613Z,18.14
2023-05-10T10:03:46.737Z,19.50
2023-05-10T10:04:46.982Z,19.98
2023-05-10T10:05:47.142Z,18.54
2023-05-10T10:06:47.287Z,18.66
2023-05-10T10:07:47.464Z,19.27
2023-05-10T10:08:47.654Z,19.70
2023-05-10T10:09:47.840Z,20.50
2023-05-10T10:10:48.083Z,21.58
2023-05-10T10:11:48.195Z,21.01
2023-05-10T10:12:48.386Z,23.27
2023-05-10T10:13:48.582Z,21.64
2023-05-10T10:14:48.756Z,22.53
2023-05-10T10:15:48.925Z,22.75
2023-05-10T10:17:05.082Z,22.77
2023-05-10T10:17:50.273Z,23.77
2023-05-10T10:18:49.577Z,23.99
2023-05-10T10:19:49.656Z,25.48
2023-05-10T10:20:49.788Z,24.81
2023-05-10T10:21:49.964Z,25.82
2023-05-10T10:22:50.152Z,25.74
2023-05-10T10:23:50.354Z,27.33
2023-05-10T10:24:50.498Z,26.26
2023-05-10T10:25:50.682Z,26.09
2023-05-10T10:26:50.869Z,26.99
2023-05-10T10:27:51.015Z,27.70
2023-05-10T10:28:51.223Z,28.51
2023-05-10T10:29:51.359Z,27.93
2023-05-10T10:30:51.555Z,28.24
2023-05-10T10:31:51.782Z,30.43
2023-05-10T10:32:51.917Z,30.82
2023-05-10T10:33:52.057Z,29.75
2023-05-10T10:34:52.233Z,31.23
2023-05-10T10:35:52.410Z,32.14
2023-05-10T10:36:52.589Z,32.34
2023-05-10T10:37:52.774Z,32.14
2023-05-10T10:38:52.937Z,32.15
2023-05-10T10:39:53.122Z,30.57
2023-05-10T10:40:53.301Z,30.39
2023-05-10T10:41:53.498Z,31.48
2023-05-10T10:42:53.676Z,33.47
2023-05-10T10:43:53.821Z,31.59
2023-05-10T10:44:54.020Z,34.27
2023-05-10T10:45:54.159Z,34.46
2023-05-10T10:46:54.380Z,34.56
2023-05-10T10:47:54.606Z,31.51
2023-05-10T10:48:54.708Z,32.61
2023-05-10T10:49:54.895Z,33.31
2023-05-10T10:50:55.069Z,33.61
2023-05-10T10:51:55.257Z,34.10
2023-05-10T10:52:55.417Z,33.40
2023-05-10T10:53:55.569Z,33.03
2023-05-10T10:54:55.738Z,34.81
2023-05-10T10:55:55.939Z,33.92
2023-05-10T10:56:56.137Z,34.01
2023-05-10T10:57:56.290Z,32.63
2023-05-10T10:58:56.471Z,33.03
2023-05-10T10:59:56.655Z,34.41
2023-05-10T11:00:56.905Z,32.73
2023-05-10T11:01:57.021Z,35.11
2023-05-10T11:02:57.244Z,33.64
2023-05-10T11:03:57.358Z,34.13
2023-05-10T11:04:57.516Z,34.23
2023-05-10T11:05:57.713Z,35.52
2023-05-10T11:06:57.888Z,34.73
2023-05-10T11:07:58.079Z,34.73
2023-05-10T11:08:58.256Z,34.52
2023-05-10T11:09:58.421Z,35.60
2023-05-10T11:10:58.642Z,35.21
2023-05-10T11:11:58.774Z,36.69
2023-05-10T11:12:58.950Z,35.50
2023-05-10T11:13:59.150Z,35.60
2023-05-10T11:14:59.330Z,36.90
2023-05-10T11:15:59.479Z,36.90
2023-05-10T11:16:59.708Z,34.31
2023-05-10T11:18:00.046Z,35.60
2023-05-10T11:19:00.115Z,36.10
2023-05-10T11:20:00.196Z,33.33
2023-05-10T11:21:00.372Z,35.41
2023-05-10T11:22:00.543Z,34.52
2023-05-10T11:23:00.720Z,34.01
2023-05-10T11:24:00.924Z,35.01
2023-05-10T11:25:01.113Z,35.60
2023-05-10T11:26:01.266Z,34.31
2023-05-10T11:27:01.438Z,34.12
2023-05-10T11:28:01.636Z,34.52
2023-05-10T11:29:01.863Z,34.41
2023-05-10T11:30:04.326Z,35.60
2023-05-10T11:31:02.223Z,33.72
2023-05-10T11:32:02.339Z,34.41
2023-05-10T11:33:02.623Z,34.71
2023-05-10T11:34:02.813Z,35.50
2023-05-10T11:35:02.878Z,34.81
2023-05-10T11:36:03.048Z,34.91
2023-05-10T11:37:03.234Z,33.40
2023-05-10T11:38:03.442Z,34.00
2023-05-10T11:39:03.650Z,35.39
2023-05-10T11:40:03.782Z,34.20
2023-05-10T11:41:03.962Z,33.01
2023-05-10T11:42:04.114Z,33.72
2023-05-10T11:43:04.330Z,33.33
2023-05-10T11:44:04.497Z,33.92
2023-05-10T11:45:04.642Z,33.33
2023-05-10T11:46:04.886Z,33.82
2023-05-10T11:47:05.017Z,32.93
2023-05-10T11:48:05.263Z,33.03
2023-05-10T11:49:05.739Z,33.62
2023-05-10T11:50:05.539Z,35.60
2023-05-10T11:51:05.744Z,32.43
2023-05-10T11:52:05.907Z,35.31
2023-05-10T11:53:06.093Z,33.33
2023-05-10T11:54:06.209Z,34.31
2023-05-10T11:55:06.402Z,33.72
2023-05-10T11:56:06.579Z,34.89
2023-05-10T11:57:06.778Z,35.80
2023-05-10T11:58:06.952Z,34.50
2023-05-10T11:59:07.104Z,35.09
2023-05-10T12:00:07.278Z,35.49
2023-05-10T12:01:07.449Z,33.21
2023-05-10T12:02:07.645Z,33.90
2023-05-10T12:03:07.992Z,33.40
2023-05-10T12:04:08.070Z,35.19
2023-05-10T12:05:08.246Z,34.10
2023-05-10T12:06:08.341Z,36.77
2023-05-10T12:07:08.502Z,35.58
2023-05-10T12:08:08.760Z,33.80
2023-05-10T12:09:08.862Z,33.11
2023-05-10T12:10:09.035Z,33.61
2023-05-10T12:11:09.212Z,33.70
2023-05-10T12:12:09.386Z,32.81
2023-05-10T12:13:09.558Z,33.40
2023-05-10T12:14:09.744Z,33.70
2023-05-10T12:15:09.946Z,33.11
2023-05-10T12:16:10.149Z,35.19
2023-05-10T12:17:10.304Z,34.30
2023-05-10T12:18:10.493Z,34.50
2023-05-10T12:19:10.676Z,33.98
2023-05-10T12:20:10.814Z,35.07
2023-05-10T12:21:10.989Z,36.07
2023-05-10T12:22:11.192Z,33.19
2023-05-10T12:23:11.312Z,33.49
2023-05-10T12:24:11.492Z,34.88
2023-05-10T12:25:11.655Z,32.79
2023-05-10T12:26:11.854Z,34.78
2023-05-10T12:27:12.028Z,34.68
2023-05-10T12:28:12.208Z,35.27
2023-05-10T12:29:12.453Z,35.67
2023-05-10T12:30:12.615Z,33.39
2023-05-10T12:31:12.770Z,34.88
2023-05-10T12:32:12.972Z,34.68
2023-05-10T12:33:13.218Z,35.27
2023-05-10T12:34:13.260Z,33.49
2023-05-10T12:35:13.457Z,34.08
2023-05-10T12:36:13.606Z,32.70
2023-05-10T12:37:13.781Z,33.19
2023-05-10T12:38:13.954Z,33.89
2023-05-10T12:39:14.125Z,32.58
2023-05-10T12:40:14.404Z,32.98
2023-05-10T12:41:14.639Z,33.07
2023-05-10T12:42:14.664Z,32.98
2023-05-10T12:43:14.832Z,32.39
2023-05-10T12:44:15.011Z,32.68
2023-05-10T12:45:15.195Z,33.67
2023-05-10T12:46:15.470Z,33.06
2023-05-10T12:47:15.531Z,32.48
2023-05-10T12:48:15.752Z,31.69
2023-05-10T12:49:15.921Z,32.39
2023-05-10T12:50:16.407Z,31.88
2023-05-10T12:51:16.222Z,35.25
2023-05-10T12:52:17.348Z,33.06
2023-05-10T12:53:16.615Z,34.84
2023-05-10T12:54:16.758Z,35.44